Weather History for KGHW - November, 2013

Change the Weather History Date:

Tuesday, November 26, 2013

  Actual Average Record
Temperature  
Mean Temperature 16 °F -  
Max Temperature 24 °F - - ()
Min Temperature 6 °F - - ()
Degree Days  
Heating Degree Days 49    
Moisture  
Dew Point 8 °F    
Average Humidity 71    
Maximum Humidity 92    
Minimum Humidity 49    
Precipitation  
Precipitation 0.00 in - - ()
Sea Level Pressure  
Sea Level Pressure 30.27 in    
Wind  
Wind Speed 18 mph (NW)    
Max Wind Speed 24 mph    
Max Gust Speed 37 mph    
Visibility 10 miles    
Events Snow    
T = Trace of Precipitation, MM = Missing Value Source: NWS Daily Summary

Daily Weather History Graph

Daily Weather History Graph

Search for Another Location

Airport or City:

Trip Planner

Search our weather history database for the weather conditions in past years. The results will help you decide how hot, cold, wet, or windy it might be!

Date:

Astronomy

Nov. 26, 2013 Rise Set
Actual Time 7:35 AM CST 4:41 PM CST
Civil Twilight 7:02 AM CST 5:14 PM CST
Nautical Twilight 6:25 AM CST 5:51 PM CST
Astronomical Twilight 5:50 AM CST 6:26 PM CST
Moon 12:20 AM CST (11/26) 1:06 PM CST (11/26)
Length of Visible Light 10h 12m
Length of Day
9h 05m
Last Quarter, 41% of the Moon is Illuminated
Nov 26
Last Quarter
Dec 2
New
Dec 9
First Quarter
Dec 17
Full
Dec 25
Last Quarter

Hourly Weather History & Observations

Time (CST) Temp. Windchill Dew Point Humidity Pressure Visibility Wind Dir Wind Speed Gust Speed Precip Events Conditions
12:13 AM 24.8 °F 10.3 °F 15.8 °F 69% 30.12 in 10.0 mi NW 20.7 mph 32.2 mph N/A   Overcast
12:34 AM 23.0 °F 8.0 °F 12.2 °F 63% 30.13 in 10.0 mi NW 20.7 mph 29.9 mph N/A   Overcast
12:53 AM 21.2 °F 5.6 °F 10.4 °F 63% 30.13 in 10.0 mi NW 20.7 mph 29.9 mph N/A   Overcast
1:13 AM 21.2 °F 6.4 °F 12.2 °F 68% 30.13 in 10.0 mi NW 18.4 mph 24.2 mph N/A Snow Light Snow
1:34 AM 21.2 °F 5.6 °F 14.0 °F 74% 30.13 in 10.0 mi WNW 20.7 mph 28.8 mph N/A   Overcast
1:53 AM 21.2 °F 6.4 °F 12.2 °F 68% 30.13 in 10.0 mi WNW 18.4 mph 27.6 mph N/A   Overcast
2:13 AM 21.2 °F 4.9 °F 10.4 °F 63% 30.14 in 10.0 mi NW 23.0 mph 31.1 mph N/A   Mostly Cloudy
2:34 AM 19.4 °F 4.1 °F 10.4 °F 68% 30.15 in 10.0 mi NW 18.4 mph 26.5 mph N/A   Overcast
2:53 AM 19.4 °F 3.6 °F 12.2 °F 74% 30.16 in 10.0 mi NW 19.6 mph 26.5 mph N/A   Overcast
3:13 AM 19.4 °F 2.8 °F 10.4 °F 68% 30.16 in 10.0 mi NW 21.9 mph 36.8 mph N/A   Overcast
3:34 AM 19.4 °F 2.1 °F 3.2 °F 49% 30.17 in 10.0 mi NNW 24.2 mph 34.5 mph N/A   Mostly Cloudy
3:53 AM 17.6 °F 2.7 °F 5.0 °F 58% 30.18 in 10.0 mi NNW 16.1 mph 23.0 mph N/A   Clear
4:14 AM 17.6 °F 2.7 °F 3.2 °F 53% 30.19 in 10.0 mi NNW 16.1 mph 33.4 mph N/A   Clear
4:33 AM 15.8 °F -1.1 °F 5.0 °F 62% 30.18 in 10.0 mi NW 19.6 mph 28.8 mph N/A   Clear
4:53 AM 15.8 °F -0.6 °F 6.8 °F 68% 30.19 in 10.0 mi NW 18.4 mph 21.9 mph N/A   Clear
5:14 AM 15.8 °F 0.9 °F 6.8 °F 68% 30.20 in 10.0 mi NW 15.0 mph 23.0 mph N/A   Clear
5:33 AM 15.8 °F 0.9 °F 6.8 °F 68% 30.21 in 10.0 mi NW 15.0 mph 20.7 mph N/A   Clear
5:53 AM 14.0 °F -0.8 °F 6.8 °F 73% 30.21 in 10.0 mi NW 13.8 mph 19.6 mph N/A   Clear
6:14 AM 15.8 °F 1.4 °F 8.6 °F 73% 30.21 in 10.0 mi NW 13.8 mph - N/A   Scattered Clouds
6:33 AM 15.8 °F -0.2 °F 8.6 °F 73% 30.21 in 10.0 mi NW 17.3 mph 24.2 mph N/A   Scattered Clouds
6:54 AM 14.0 °F -2.0 °F 8.6 °F 79% 30.22 in 10.0 mi NW 16.1 mph 21.9 mph N/A   Scattered Clouds
7:13 AM 14.0 °F -2.5 °F 8.6 °F 79% 30.21 in 10.0 mi NW 17.3 mph 24.2 mph N/A   Scattered Clouds
7:33 AM 14.0 °F -1.4 °F 8.6 °F 79% 30.22 in 7.0 mi NW 15.0 mph - N/A Snow Light Snow
7:54 AM 15.8 °F -0.2 °F 10.4 °F 79% 30.23 in 5.0 mi WNW 17.3 mph 25.3 mph N/A Snow Light Snow
8:13 AM 15.8 °F 0.3 °F 8.6 °F 73% 30.24 in 5.0 mi NW 16.1 mph - N/A Snow Light Snow
8:33 AM 14.0 °F -2.0 °F 8.6 °F 79% 30.25 in 10.0 mi WNW 16.1 mph 24.2 mph N/A   Overcast
8:53 AM 14.0 °F -3.4 °F 6.8 °F 73% 30.26 in 10.0 mi NW 19.6 mph 23.0 mph N/A   Mostly Cloudy
9:13 AM 15.8 °F -0.6 °F 8.6 °F 73% 30.27 in 10.0 mi NW 18.4 mph 28.8 mph N/A   Scattered Clouds
9:33 AM 15.8 °F -1.5 °F 8.6 °F 73% 30.28 in 7.0 mi NW 20.7 mph 26.5 mph N/A Snow Light Snow
9:53 AM 15.8 °F -1.9 °F 8.6 °F 73% 30.28 in 10.0 mi NW 21.9 mph 26.5 mph N/A   Scattered Clouds
10:13 AM 17.6 °F 0.9 °F 8.6 °F 68% 30.29 in 10.0 mi NW 20.7 mph 29.9 mph N/A   Scattered Clouds
10:33 AM 17.6 °F 1.7 °F 6.8 °F 63% 30.29 in 10.0 mi NW 18.4 mph 29.9 mph N/A   Scattered Clouds
10:53 AM 17.6 °F 1.7 °F 6.8 °F 63% 30.29 in 10.0 mi NW 18.4 mph 28.8 mph N/A   Clear
11:13 AM 19.4 °F 3.6 °F 6.8 °F 58% 30.29 in 10.0 mi NW 19.6 mph 25.3 mph N/A   Clear
11:34 AM 19.4 °F 3.6 °F 6.8 °F 58% 30.29 in 10.0 mi NW 19.6 mph 25.3 mph N/A   Scattered Clouds
11:53 AM 19.4 °F 4.5 °F 6.8 °F 58% 30.29 in 10.0 mi NW 17.3 mph 25.3 mph N/A   Scattered Clouds
12:13 PM 19.4 °F 4.5 °F 6.8 °F 58% 30.29 in 10.0 mi NW 17.3 mph 24.2 mph N/A   Mostly Cloudy
12:34 PM 19.4 °F 3.6 °F 6.8 °F 58% 30.29 in 10.0 mi NW 19.6 mph 28.8 mph N/A   Mostly Cloudy
12:53 PM 19.4 °F 2.8 °F 6.8 °F 58% 30.29 in 10.0 mi NW 21.9 mph 25.3 mph N/A   Mostly Cloudy
1:13 PM 19.4 °F 3.6 °F 8.6 °F 63% 30.29 in 10.0 mi NW 19.6 mph 26.5 mph N/A   Mostly Cloudy
1:33 PM 19.4 °F 3.2 °F 6.8 °F 58% 30.28 in 10.0 mi NW 20.7 mph 29.9 mph N/A   Mostly Cloudy
1:53 PM 19.4 °F 2.8 °F 6.8 °F 58% 30.28 in 10.0 mi NW 21.9 mph - N/A   Mostly Cloudy
2:14 PM 19.4 °F 3.2 °F 6.8 °F 58% 30.29 in 10.0 mi NNW 20.7 mph 29.9 mph N/A   Mostly Cloudy
2:33 PM 19.4 °F 4.5 °F 6.8 °F 58% 30.29 in 10.0 mi NW 17.3 mph 34.5 mph N/A   Mostly Cloudy
2:53 PM 19.4 °F 3.6 °F 6.8 °F 58% 30.29 in 10.0 mi NW 19.6 mph 26.5 mph N/A   Scattered Clouds
3:14 PM 19.4 °F 4.5 °F 6.8 °F 58% 30.30 in 10.0 mi NW 17.3 mph 28.8 mph N/A   Mostly Cloudy
3:33 PM 17.6 °F 1.3 °F 6.8 °F 63% 30.30 in 10.0 mi NW 19.6 mph 26.5 mph N/A   Scattered Clouds
3:53 PM 17.6 °F 1.7 °F 6.8 °F 63% 30.31 in 10.0 mi NW 18.4 mph 24.2 mph N/A   Clear
4:14 PM 17.6 °F 1.7 °F 6.8 °F 63% 30.32 in 10.0 mi NW 18.4 mph 26.5 mph N/A   Clear
4:33 PM 15.8 °F -0.6 °F 6.8 °F 68% 30.33 in 10.0 mi NNW 18.4 mph 27.6 mph N/A   Clear
4:53 PM 15.8 °F 0.3 °F 6.8 °F 68% 30.34 in 10.0 mi NW 16.1 mph 19.6 mph N/A   Clear
5:13 PM 15.8 °F -0.2 °F 6.8 °F 68% 30.34 in 10.0 mi NW 17.3 mph - N/A   Clear
5:33 PM 14.0 °F -0.8 °F 6.8 °F 73% 30.34 in 10.0 mi NNW 13.8 mph 18.4 mph N/A   Clear
5:53 PM 14.0 °F -0.2 °F 6.8 °F 73% 30.35 in 10.0 mi NNW 12.7 mph - N/A   Scattered Clouds
6:13 PM 12.2 °F -2.5 °F 6.8 °F 79% 30.36 in 10.0 mi NNW 12.7 mph - N/A   Clear
6:33 PM 12.2 °F -3.7 °F 6.8 °F 79% 30.36 in 10.0 mi NNW 15.0 mph 18.4 mph N/A   Clear
6:54 PM 12.2 °F -2.5 °F 6.8 °F 79% 30.36 in 10.0 mi NNW 12.7 mph 18.4 mph N/A   Scattered Clouds
7:13 PM 12.2 °F -1.0 °F 6.8 °F 79% 30.36 in 10.0 mi NNW 10.4 mph - N/A   Clear
7:34 PM 12.2 °F -1.0 °F 6.8 °F 79% 30.37 in 10.0 mi NNW 10.4 mph - N/A   Clear
7:53 PM 10.4 °F -3.3 °F 6.8 °F 85% 30.37 in 10.0 mi NNW 10.4 mph - N/A   Clear
8:13 PM 10.4 °F -2.4 °F 6.8 °F 85% 30.37 in 10.0 mi NNW 9.2 mph - N/A   Clear
8:34 PM 10.4 °F -0.4 °F 6.8 °F 85% 30.37 in 10.0 mi NNW 6.9 mph - N/A   Clear
8:53 PM 8.6 °F -1.3 °F 6.8 °F 92% 30.37 in 10.0 mi NNW 5.8 mph - N/A   Clear
9:13 PM 8.6 °F -3.7 °F 5.0 °F 85% 30.36 in 10.0 mi NNW 8.1 mph - N/A   Clear
9:34 PM 8.6 °F -2.6 °F 6.8 °F 92% 30.37 in 10.0 mi NNW 6.9 mph - N/A   Clear
9:53 PM 8.6 °F -1.3 °F 6.8 °F 92% 30.37 in 10.0 mi NNW 5.8 mph - N/A   Clear
10:13 PM 8.6 °F -1.3 °F 5.0 °F 85% 30.37 in 10.0 mi NNW 5.8 mph - N/A   Clear
10:33 PM 8.6 °F -2.6 °F 6.8 °F 92% 30.37 in 10.0 mi NNW 6.9 mph - N/A   Clear
10:53 PM 8.6 °F -1.3 °F 6.8 °F 92% 30.37 in 10.0 mi NNW 5.8 mph - N/A   Clear
11:13 PM 8.6 °F 0.1 °F 5.0 °F 85% 30.37 in 10.0 mi North 4.6 mph - N/A   Clear
11:33 PM 8.6 °F 0.1 °F 5.0 °F 85% 30.38 in 10.0 mi North 4.6 mph - N/A   Clear
11:53 PM 6.8 °F -0.1 °F 3.2 °F 85% 30.37 in 10.0 mi NNW 3.5 mph - N/A   Clear